sensor_id;sensor_type;location;lat;lon;timestamp;P1;durP1;ratioP1;P2;durP2;ratioP2
68225;SDS011;55045;49.410;11.030;2023-07-08T00:00:18;7.85;;;5.43;;
68225;SDS011;55045;49.410;11.030;2023-07-08T00:03:23;7.75;;;5.38;;
68225;SDS011;55045;49.410;11.030;2023-07-08T00:06:27;7.63;;;5.00;;
68225;SDS011;55045;49.410;11.030;2023-07-08T00:09:32;7.65;;;5.03;;
68225;SDS011;55045;49.410;11.030;2023-07-08T00:12:35;9.38;;;4.95;;
68225;SDS011;55045;49.410;11.030;2023-07-08T00:15:39;7.63;;;4.95;;
68225;SDS011;55045;49.410;11.030;2023-07-08T00:18:43;7.28;;;5.15;;
68225;SDS011;55045;49.410;11.030;2023-07-08T00:21:46;9.65;;;4.57;;
68225;SDS011;55045;49.410;11.030;2023-07-08T00:24:51;8.93;;;5.40;;
68225;SDS011;55045;49.410;11.030;2023-07-08T00:27:54;5.70;;;4.32;;
68225;SDS011;55045;49.410;11.030;2023-07-08T00:31:00;9.00;;;5.25;;
68225;SDS011;55045;49.410;11.030;2023-07-08T00:34:04;8.48;;;4.90;;
68225;SDS011;55045;49.410;11.030;2023-07-08T00:37:08;8.45;;;4.90;;
68225;SDS011;55045;49.410;11.030;2023-07-08T00:40:16;7.43;;;5.00;;
68225;SDS011;55045;49.410;11.030;2023-07-08T00:46:31;8.98;;;5.10;;
68225;SDS011;55045;49.410;11.030;2023-07-08T00:49:43;14.73;;;4.75;;
68225;SDS011;55045;49.410;11.030;2023-07-08T00:52:50;8.65;;;5.15;;
68225;SDS011;55045;49.410;11.030;2023-07-08T00:55:56;5.97;;;4.65;;
68225;SDS011;55045;49.410;11.030;2023-07-08T00:59:04;7.32;;;4.50;;
68225;SDS011;55045;49.410;11.030;2023-07-08T01:02:12;6.30;;;4.72;;
68225;SDS011;55045;49.410;11.030;2023-07-08T01:05:21;7.38;;;4.72;;
68225;SDS011;55045;49.410;11.030;2023-07-08T01:08:27;7.53;;;4.80;;
68225;SDS011;55045;49.410;11.030;2023-07-08T01:11:33;7.78;;;4.43;;
68225;SDS011;55045;49.410;11.030;2023-07-08T01:14:40;9.68;;;5.15;;
68225;SDS011;55045;49.410;11.030;2023-07-08T01:17:45;8.05;;;4.75;;
68225;SDS011;55045;49.410;11.030;2023-07-08T01:20:49;6.65;;;4.63;;
68225;SDS011;55045;49.410;11.030;2023-07-08T01:23:53;6.85;;;4.68;;
68225;SDS011;55045;49.410;11.030;2023-07-08T01:26:57;8.90;;;5.15;;
68225;SDS011;55045;49.410;11.030;2023-07-08T01:30:03;9.88;;;5.22;;
68225;SDS011;55045;49.410;11.030;2023-07-08T01:33:12;8.65;;;4.95;;
68225;SDS011;55045;49.410;11.030;2023-07-08T01:36:20;8.68;;;5.32;;
68225;SDS011;55045;49.410;11.030;2023-07-08T01:39:29;8.70;;;4.95;;
68225;SDS011;55045;49.410;11.030;2023-07-08T01:42:33;8.07;;;5.05;;
68225;SDS011;55045;49.410;11.030;2023-07-08T01:45:38;8.77;;;5.47;;
68225;SDS011;55045;49.410;11.030;2023-07-08T01:48:44;8.60;;;5.10;;
68225;SDS011;55045;49.410;11.030;2023-07-08T01:51:50;7.97;;;5.30;;
68225;SDS011;55045;49.410;11.030;2023-07-08T01:54:55;8.52;;;5.00;;
68225;SDS011;55045;49.410;11.030;2023-07-08T01:57:58;8.00;;;5.10;;
68225;SDS011;55045;49.410;11.030;2023-07-08T02:01:02;6.45;;;4.35;;
68225;SDS011;55045;49.410;11.030;2023-07-08T02:04:06;6.20;;;4.95;;
68225;SDS011;55045;49.410;11.030;2023-07-08T02:07:11;7.70;;;5.03;;
68225;SDS011;55045;49.410;11.030;2023-07-08T02:10:16;8.10;;;4.93;;
68225;SDS011;55045;49.410;11.030;2023-07-08T02:13:20;8.32;;;5.55;;
68225;SDS011;55045;49.410;11.030;2023-07-08T02:16:24;9.52;;;5.35;;
68225;SDS011;55045;49.410;11.030;2023-07-08T02:19:27;8.18;;;5.38;;
68225;SDS011;55045;49.410;11.030;2023-07-08T02:22:30;7.57;;;5.00;;
68225;SDS011;55045;49.410;11.030;2023-07-08T02:25:35;7.93;;;5.10;;
68225;SDS011;55045;49.410;11.030;2023-07-08T02:28:39;7.55;;;5.38;;
68225;SDS011;55045;49.410;11.030;2023-07-08T02:31:42;11.68;;;6.60;;
68225;SDS011;55045;49.410;11.030;2023-07-08T02:34:45;7.45;;;5.28;;
68225;SDS011;55045;49.410;11.030;2023-07-08T02:37:49;11.75;;;5.93;;
68225;SDS011;55045;49.410;11.030;2023-07-08T02:40:53;6.80;;;5.80;;
68225;SDS011;55045;49.410;11.030;2023-07-08T02:43:56;10.93;;;6.50;;
68225;SDS011;55045;49.410;11.030;2023-07-08T02:47:00;8.35;;;6.43;;
68225;SDS011;55045;49.410;11.030;2023-07-08T02:50:03;8.60;;;5.80;;
68225;SDS011;55045;49.410;11.030;2023-07-08T02:53:07;9.02;;;5.88;;
68225;SDS011;55045;49.410;11.030;2023-07-08T02:56:11;7.45;;;5.45;;
68225;SDS011;55045;49.410;11.030;2023-07-08T02:59:14;7.88;;;5.95;;
68225;SDS011;55045;49.410;11.030;2023-07-08T03:02:18;7.88;;;5.38;;
68225;SDS011;55045;49.410;11.030;2023-07-08T03:05:21;7.78;;;5.53;;
68225;SDS011;55045;49.410;11.030;2023-07-08T03:08:25;9.23;;;5.93;;
68225;SDS011;55045;49.410;11.030;2023-07-08T03:11:29;9.15;;;5.55;;
68225;SDS011;55045;49.410;11.030;2023-07-08T03:14:32;8.88;;;5.32;;
68225;SDS011;55045;49.410;11.030;2023-07-08T03:17:36;10.07;;;5.35;;
68225;SDS011;55045;49.410;11.030;2023-07-08T03:20:39;8.10;;;5.32;;
68225;SDS011;55045;49.410;11.030;2023-07-08T03:23:47;7.20;;;5.63;;
68225;SDS011;55045;49.410;11.030;2023-07-08T03:26:53;7.80;;;5.38;;
68225;SDS011;55045;49.410;11.030;2023-07-08T03:29:59;8.20;;;5.23;;
68225;SDS011;55045;49.410;11.030;2023-07-08T03:35:02;9.98;;;5.75;;
68225;SDS011;55045;49.410;11.030;2023-07-08T03:38:06;9.05;;;5.50;;
68225;SDS011;55045;49.410;11.030;2023-07-08T03:41:09;7.68;;;5.78;;
68225;SDS011;55045;49.410;11.030;2023-07-08T03:44:13;7.35;;;5.38;;
68225;SDS011;55045;49.410;11.030;2023-07-08T03:47:17;7.82;;;5.38;;
68225;SDS011;55045;49.410;11.030;2023-07-08T03:50:24;7.97;;;5.82;;
68225;SDS011;55045;49.410;11.030;2023-07-08T03:53:28;10.48;;;5.80;;
68225;SDS011;55045;49.410;11.030;2023-07-08T03:56:31;10.05;;;5.45;;
68225;SDS011;55045;49.410;11.030;2023-07-08T03:59:36;10.80;;;5.65;;
68225;SDS011;55045;49.410;11.030;2023-07-08T04:02:47;7.68;;;5.10;;
68225;SDS011;55045;49.410;11.030;2023-07-08T04:05:56;7.80;;;5.68;;
68225;SDS011;55045;49.410;11.030;2023-07-08T04:09:00;9.40;;;5.60;;
68225;SDS011;55045;49.410;11.030;2023-07-08T04:12:04;7.18;;;5.40;;
68225;SDS011;55045;49.410;11.030;2023-07-08T04:15:08;6.70;;;4.85;;
68225;SDS011;55045;49.410;11.030;2023-07-08T04:18:13;8.88;;;5.65;;
68225;SDS011;55045;49.410;11.030;2023-07-08T04:21:18;8.60;;;5.53;;
68225;SDS011;55045;49.410;11.030;2023-07-08T04:24:39;10.70;;;5.95;;
68225;SDS011;55045;49.410;11.030;2023-07-08T04:27:42;9.70;;;5.90;;
68225;SDS011;55045;49.410;11.030;2023-07-08T04:30:45;9.38;;;5.78;;
68225;SDS011;55045;49.410;11.030;2023-07-08T04:33:49;8.23;;;5.30;;
68225;SDS011;55045;49.410;11.030;2023-07-08T04:36:53;8.48;;;5.47;;
68225;SDS011;55045;49.410;11.030;2023-07-08T04:39:56;8.40;;;5.55;;
68225;SDS011;55045;49.410;11.030;2023-07-08T04:43:01;11.25;;;6.22;;
68225;SDS011;55045;49.410;11.030;2023-07-08T04:46:05;10.77;;;5.82;;
68225;SDS011;55045;49.410;11.030;2023-07-08T04:49:18;7.07;;;5.35;;
68225;SDS011;55045;49.410;11.030;2023-07-08T04:52:23;9.15;;;5.75;;
68225;SDS011;55045;49.410;11.030;2023-07-08T04:55:26;6.75;;;5.03;;
68225;SDS011;55045;49.410;11.030;2023-07-08T04:58:30;9.25;;;5.97;;
68225;SDS011;55045;49.410;11.030;2023-07-08T05:01:33;8.45;;;5.95;;
68225;SDS011;55045;49.410;11.030;2023-07-08T05:04:37;7.30;;;5.30;;
68225;SDS011;55045;49.410;11.030;2023-07-08T05:07:41;11.50;;;5.47;;
68225;SDS011;55045;49.410;11.030;2023-07-08T05:10:45;7.28;;;5.82;;
68225;SDS011;55045;49.410;11.030;2023-07-08T05:13:48;9.40;;;5.45;;
68225;SDS011;55045;49.410;11.030;2023-07-08T05:16:52;8.05;;;5.50;;
68225;SDS011;55045;49.410;11.030;2023-07-08T05:19:55;6.20;;;4.90;;
68225;SDS011;55045;49.410;11.030;2023-07-08T05:23:01;9.40;;;5.45;;
68225;SDS011;55045;49.410;11.030;2023-07-08T05:26:04;8.73;;;4.85;;
68225;SDS011;55045;49.410;11.030;2023-07-08T05:29:08;7.57;;;5.15;;
68225;SDS011;55045;49.410;11.030;2023-07-08T05:32:12;2.42;;;2.15;;
68225;SDS011;55045;49.410;11.030;2023-07-08T05:35:15;5.47;;;3.70;;
68225;SDS011;55045;49.410;11.030;2023-07-08T05:38:20;4.63;;;2.72;;
68225;SDS011;55045;49.410;11.030;2023-07-08T05:41:23;4.30;;;2.80;;
68225;SDS011;55045;49.410;11.030;2023-07-08T05:44:26;6.05;;;2.55;;
68225;SDS011;55045;49.410;11.030;2023-07-08T05:47:30;4.72;;;3.33;;
68225;SDS011;55045;49.410;11.030;2023-07-08T05:50:33;2.67;;;2.30;;
68225;SDS011;55045;49.410;11.030;2023-07-08T05:53:38;3.90;;;3.13;;
68225;SDS011;55045;49.410;11.030;2023-07-08T05:56:41;4.07;;;2.65;;
68225;SDS011;55045;49.410;11.030;2023-07-08T05:59:44;4.07;;;3.15;;
68225;SDS011;55045;49.410;11.030;2023-07-08T06:02:48;4.20;;;3.00;;
68225;SDS011;55045;49.410;11.030;2023-07-08T06:05:51;2.88;;;2.60;;
68225;SDS011;55045;49.410;11.030;2023-07-08T06:08:56;16.55;;;4.18;;
68225;SDS011;55045;49.410;11.030;2023-07-08T06:11:59;6.03;;;2.60;;
68225;SDS011;55045;49.410;11.030;2023-07-08T06:15:03;4.45;;;3.60;;
68225;SDS011;55045;49.410;11.030;2023-07-08T06:18:06;4.05;;;2.58;;
68225;SDS011;55045;49.410;11.030;2023-07-08T06:21:09;4.97;;;3.05;;
68225;SDS011;55045;49.410;11.030;2023-07-08T06:24:14;3.80;;;2.88;;
68225;SDS011;55045;49.410;11.030;2023-07-08T06:27:17;3.88;;;2.65;;
68225;SDS011;55045;49.410;11.030;2023-07-08T06:30:20;4.28;;;3.30;;
68225;SDS011;55045;49.410;11.030;2023-07-08T06:33:24;5.22;;;3.70;;
68225;SDS011;55045;49.410;11.030;2023-07-08T06:36:27;4.70;;;3.53;;
68225;SDS011;55045;49.410;11.030;2023-07-08T06:39:31;8.32;;;3.65;;
68225;SDS011;55045;49.410;11.030;2023-07-08T06:42:39;3.70;;;1.90;;
68225;SDS011;55045;49.410;11.030;2023-07-08T06:45:51;2.30;;;2.05;;
68225;SDS011;55045;49.410;11.030;2023-07-08T06:48:54;2.97;;;2.17;;
68225;SDS011;55045;49.410;11.030;2023-07-08T06:51:58;1.75;;;1.65;;
68225;SDS011;55045;49.410;11.030;2023-07-08T06:55:05;2.70;;;2.03;;
68225;SDS011;55045;49.410;11.030;2023-07-08T06:58:10;3.33;;;2.15;;
68225;SDS011;55045;49.410;11.030;2023-07-08T07:01:14;3.97;;;2.05;;
68225;SDS011;55045;49.410;11.030;2023-07-08T07:04:17;12.60;;;3.08;;
68225;SDS011;55045;49.410;11.030;2023-07-08T07:07:20;4.10;;;2.53;;
68225;SDS011;55045;49.410;11.030;2023-07-08T07:10:25;4.40;;;2.75;;
68225;SDS011;55045;49.410;11.030;2023-07-08T07:13:28;2.38;;;2.03;;
68225;SDS011;55045;49.410;11.030;2023-07-08T07:16:31;4.22;;;2.55;;
68225;SDS011;55045;49.410;11.030;2023-07-08T07:19:35;3.85;;;2.38;;
68225;SDS011;55045;49.410;11.030;2023-07-08T07:22:38;4.05;;;2.72;;
68225;SDS011;55045;49.410;11.030;2023-07-08T07:25:44;2.50;;;2.00;;
68225;SDS011;55045;49.410;11.030;2023-07-08T07:28:49;2.33;;;1.90;;
68225;SDS011;55045;49.410;11.030;2023-07-08T07:31:52;3.33;;;2.33;;
68225;SDS011;55045;49.410;11.030;2023-07-08T07:34:56;2.13;;;1.83;;
68225;SDS011;55045;49.410;11.030;2023-07-08T07:38:01;6.03;;;2.95;;
68225;SDS011;55045;49.410;11.030;2023-07-08T07:41:05;2.88;;;2.10;;
68225;SDS011;55045;49.410;11.030;2023-07-08T07:44:12;1.63;;;1.52;;
68225;SDS011;55045;49.410;11.030;2023-07-08T07:47:15;3.58;;;2.20;;
68225;SDS011;55045;49.410;11.030;2023-07-08T07:50:18;4.43;;;2.53;;
68225;SDS011;55045;49.410;11.030;2023-07-08T07:53:22;4.30;;;2.38;;
68225;SDS011;55045;49.410;11.030;2023-07-08T07:56:26;3.22;;;1.92;;
68225;SDS011;55045;49.410;11.030;2023-07-08T07:59:30;3.17;;;2.20;;
68225;SDS011;55045;49.410;11.030;2023-07-08T08:02:33;1.30;;;1.00;;
68225;SDS011;55045;49.410;11.030;2023-07-08T08:05:36;6.13;;;2.10;;
68225;SDS011;55045;49.410;11.030;2023-07-08T08:08:40;3.75;;;1.58;;
68225;SDS011;55045;49.410;11.030;2023-07-08T08:11:44;2.03;;;1.75;;
68225;SDS011;55045;49.410;11.030;2023-07-08T08:14:47;9.93;;;3.13;;
68225;SDS011;55045;49.410;11.030;2023-07-08T08:17:51;1.40;;;1.30;;
68225;SDS011;55045;49.410;11.030;2023-07-08T08:20:54;4.15;;;2.92;;
68225;SDS011;55045;49.410;11.030;2023-07-08T08:23:58;1.85;;;1.58;;
68225;SDS011;55045;49.410;11.030;2023-07-08T08:27:04;3.58;;;1.80;;
68225;SDS011;55045;49.410;11.030;2023-07-08T08:30:08;6.95;;;2.45;;
68225;SDS011;55045;49.410;11.030;2023-07-08T08:33:11;2.22;;;1.90;;
68225;SDS011;55045;49.410;11.030;2023-07-08T08:36:15;3.20;;;1.85;;
68225;SDS011;55045;49.410;11.030;2023-07-08T08:39:18;3.13;;;1.90;;
68225;SDS011;55045;49.410;11.030;2023-07-08T08:42:24;2.53;;;2.05;;
68225;SDS011;55045;49.410;11.030;2023-07-08T08:45:32;3.40;;;1.58;;
68225;SDS011;55045;49.410;11.030;2023-07-08T08:48:45;3.42;;;2.00;;
68225;SDS011;55045;49.410;11.030;2023-07-08T08:51:56;2.97;;;2.13;;
68225;SDS011;55045;49.410;11.030;2023-07-08T08:55:01;2.65;;;1.60;;
68225;SDS011;55045;49.410;11.030;2023-07-08T08:58:08;2.75;;;2.15;;
68225;SDS011;55045;49.410;11.030;2023-07-08T09:01:23;2.25;;;2.05;;
68225;SDS011;55045;49.410;11.030;2023-07-08T09:04:27;4.43;;;1.88;;
68225;SDS011;55045;49.410;11.030;2023-07-08T09:07:36;1.63;;;1.52;;
68225;SDS011;55045;49.410;11.030;2023-07-08T09:10:48;2.72;;;2.47;;
68225;SDS011;55045;49.410;11.030;2023-07-08T09:13:58;3.40;;;1.60;;
68225;SDS011;55045;49.410;11.030;2023-07-08T09:17:07;3.22;;;1.77;;
68225;SDS011;55045;49.410;11.030;2023-07-08T09:20:20;2.55;;;1.45;;
68225;SDS011;55045;49.410;11.030;2023-07-08T09:23:25;2.55;;;1.90;;
68225;SDS011;55045;49.410;11.030;2023-07-08T09:26:33;1.48;;;1.10;;
68225;SDS011;55045;49.410;11.030;2023-07-08T09:29:38;3.38;;;1.98;;
68225;SDS011;55045;49.410;11.030;2023-07-08T09:35:03;1.38;;;1.33;;
68225;SDS011;55045;49.410;11.030;2023-07-08T09:38:09;2.15;;;1.63;;
68225;SDS011;55045;49.410;11.030;2023-07-08T09:41:27;3.05;;;2.00;;
68225;SDS011;55045;49.410;11.030;2023-07-08T09:44:32;3.28;;;2.08;;
68225;SDS011;55045;49.410;11.030;2023-07-08T09:47:36;3.15;;;1.90;;
68225;SDS011;55045;49.410;11.030;2023-07-08T09:50:44;3.30;;;1.45;;
68225;SDS011;55045;49.410;11.030;2023-07-08T09:53:50;3.20;;;2.10;;
68225;SDS011;55045;49.410;11.030;2023-07-08T09:57:00;3.35;;;2.10;;
68225;SDS011;55045;49.410;11.030;2023-07-08T10:00:08;1.38;;;1.27;;
68225;SDS011;55045;49.410;11.030;2023-07-08T10:03:15;3.25;;;1.92;;
68225;SDS011;55045;49.410;11.030;2023-07-08T10:06:26;1.77;;;1.35;;
68225;SDS011;55045;49.410;11.030;2023-07-08T10:09:31;2.08;;;1.90;;
68225;SDS011;55045;49.410;11.030;2023-07-08T10:12:35;2.55;;;2.03;;
68225;SDS011;55045;49.410;11.030;2023-07-08T10:15:42;3.05;;;1.77;;
68225;SDS011;55045;49.410;11.030;2023-07-08T10:18:49;1.17;;;1.17;;
68225;SDS011;55045;49.410;11.030;2023-07-08T10:21:58;3.60;;;1.92;;
68225;SDS011;55045;49.410;11.030;2023-07-08T10:25:19;3.13;;;1.95;;
68225;SDS011;55045;49.410;11.030;2023-07-08T10:28:31;2.60;;;1.90;;
68225;SDS011;55045;49.410;11.030;2023-07-08T10:31:41;2.20;;;2.00;;
68225;SDS011;55045;49.410;11.030;2023-07-08T10:34:52;1.60;;;1.13;;
68225;SDS011;55045;49.410;11.030;2023-07-08T10:38:09;2.00;;;1.77;;
68225;SDS011;55045;49.410;11.030;2023-07-08T10:41:28;1.90;;;1.50;;
68225;SDS011;55045;49.410;11.030;2023-07-08T10:44:42;2.15;;;1.27;;
68225;SDS011;55045;49.410;11.030;2023-07-08T10:48:00;3.20;;;1.90;;
68225;SDS011;55045;49.410;11.030;2023-07-08T10:51:18;1.63;;;1.52;;
68225;SDS011;55045;49.410;11.030;2023-07-08T10:54:31;1.40;;;1.13;;
68225;SDS011;55045;49.410;11.030;2023-07-08T11:01:25;3.00;;;1.98;;
68225;SDS011;55045;49.410;11.030;2023-07-08T11:04:42;3.67;;;2.20;;
68225;SDS011;55045;49.410;11.030;2023-07-08T11:07:55;3.55;;;1.75;;
68225;SDS011;55045;49.410;11.030;2023-07-08T11:11:06;2.70;;;1.90;;
68225;SDS011;55045;49.410;11.030;2023-07-08T11:14:18;2.90;;;1.83;;
68225;SDS011;55045;49.410;11.030;2023-07-08T11:17:29;1.75;;;1.65;;
68225;SDS011;55045;49.410;11.030;2023-07-08T11:20:37;0.70;;;0.70;;
68225;SDS011;55045;49.410;11.030;2023-07-08T11:23:44;1.90;;;1.38;;
68225;SDS011;55045;49.410;11.030;2023-07-08T11:26:53;5.50;;;1.92;;
68225;SDS011;55045;49.410;11.030;2023-07-08T11:30:01;3.55;;;2.05;;
68225;SDS011;55045;49.410;11.030;2023-07-08T11:33:09;3.28;;;1.95;;
68225;SDS011;55045;49.410;11.030;2023-07-08T11:36:15;2.95;;;2.30;;
68225;SDS011;55045;49.410;11.030;2023-07-08T11:39:28;5.63;;;1.27;;
68225;SDS011;55045;49.410;11.030;2023-07-08T11:42:37;2.70;;;1.98;;
68225;SDS011;55045;49.410;11.030;2023-07-08T11:45:43;3.90;;;1.98;;
68225;SDS011;55045;49.410;11.030;2023-07-08T11:48:48;1.83;;;1.73;;
68225;SDS011;55045;49.410;11.030;2023-07-08T11:51:53;1.00;;;1.00;;
68225;SDS011;55045;49.410;11.030;2023-07-08T11:55:03;2.47;;;2.25;;
68225;SDS011;55045;49.410;11.030;2023-07-08T11:58:20;2.53;;;2.00;;
68225;SDS011;55045;49.410;11.030;2023-07-08T12:01:26;2.88;;;1.50;;
68225;SDS011;55045;49.410;11.030;2023-07-08T12:04:33;4.25;;;2.30;;
68225;SDS011;55045;49.410;11.030;2023-07-08T12:07:57;1.98;;;1.77;;
68225;SDS011;55045;49.410;11.030;2023-07-08T12:11:02;3.53;;;1.67;;
68225;SDS011;55045;49.410;11.030;2023-07-08T12:14:08;2.25;;;2.00;;
68225;SDS011;55045;49.410;11.030;2023-07-08T12:17:11;1.00;;;0.93;;
68225;SDS011;55045;49.410;11.030;2023-07-08T12:20:17;4.63;;;1.55;;
68225;SDS011;55045;49.410;11.030;2023-07-08T12:23:25;2.70;;;1.67;;
68225;SDS011;55045;49.410;11.030;2023-07-08T12:26:29;4.05;;;2.33;;
68225;SDS011;55045;49.410;11.030;2023-07-08T12:29:33;2.67;;;2.13;;
68225;SDS011;55045;49.410;11.030;2023-07-08T12:32:37;1.08;;;1.02;;
68225;SDS011;55045;49.410;11.030;2023-07-08T12:35:40;2.80;;;1.20;;
68225;SDS011;55045;49.410;11.030;2023-07-08T12:38:45;7.22;;;1.95;;
68225;SDS011;55045;49.410;11.030;2023-07-08T12:41:50;1.48;;;1.38;;
68225;SDS011;55045;49.410;11.030;2023-07-08T12:44:54;1.50;;;1.23;;
68225;SDS011;55045;49.410;11.030;2023-07-08T12:47:58;3.78;;;1.83;;
68225;SDS011;55045;49.410;11.030;2023-07-08T12:51:02;4.57;;;1.77;;
68225;SDS011;55045;49.410;11.030;2023-07-08T12:54:08;2.90;;;2.13;;
68225;SDS011;55045;49.410;11.030;2023-07-08T12:57:12;1.17;;;0.90;;
68225;SDS011;55045;49.410;11.030;2023-07-08T13:00:21;1.58;;;1.48;;
68225;SDS011;55045;49.410;11.030;2023-07-08T13:03:27;1.23;;;1.10;;
68225;SDS011;55045;49.410;11.030;2023-07-08T13:06:33;4.03;;;2.22;;
68225;SDS011;55045;49.410;11.030;2023-07-08T13:09:37;2.78;;;2.00;;
68225;SDS011;55045;49.410;11.030;2023-07-08T13:12:42;2.83;;;1.92;;
68225;SDS011;55045;49.410;11.030;2023-07-08T13:15:47;2.30;;;1.60;;
68225;SDS011;55045;49.410;11.030;2023-07-08T13:18:51;3.83;;;2.20;;
68225;SDS011;55045;49.410;11.030;2023-07-08T13:21:54;3.42;;;2.15;;
68225;SDS011;55045;49.410;11.030;2023-07-08T13:24:59;3.85;;;2.00;;
68225;SDS011;55045;49.410;11.030;2023-07-08T13:28:17;3.45;;;2.22;;
68225;SDS011;55045;49.410;11.030;2023-07-08T13:31:23;5.00;;;2.50;;
68225;SDS011;55045;49.410;11.030;2023-07-08T13:34:27;1.35;;;1.25;;
68225;SDS011;55045;49.410;11.030;2023-07-08T13:37:31;2.08;;;1.50;;
68225;SDS011;55045;49.410;11.030;2023-07-08T13:40:35;2.85;;;1.60;;
68225;SDS011;55045;49.410;11.030;2023-07-08T13:43:39;3.00;;;1.65;;
68225;SDS011;55045;49.410;11.030;2023-07-08T13:46:46;1.60;;;1.50;;
68225;SDS011;55045;49.410;11.030;2023-07-08T13:49:56;6.47;;;2.15;;
68225;SDS011;55045;49.410;11.030;2023-07-08T13:53:13;13.10;;;2.22;;
68225;SDS011;55045;49.410;11.030;2023-07-08T13:56:20;3.40;;;2.38;;
68225;SDS011;55045;49.410;11.030;2023-07-08T13:59:25;3.80;;;1.88;;
68225;SDS011;55045;49.410;11.030;2023-07-08T14:02:30;1.52;;;1.42;;
68225;SDS011;55045;49.410;11.030;2023-07-08T14:05:36;3.25;;;2.28;;
68225;SDS011;55045;49.410;11.030;2023-07-08T14:08:39;1.55;;;1.33;;
68225;SDS011;55045;49.410;11.030;2023-07-08T14:11:43;1.05;;;1.05;;
68225;SDS011;55045;49.410;11.030;2023-07-08T14:14:46;9.45;;;2.17;;
68225;SDS011;55045;49.410;11.030;2023-07-08T14:17:51;1.63;;;1.50;;
68225;SDS011;55045;49.410;11.030;2023-07-08T14:20:54;2.72;;;2.10;;
68225;SDS011;55045;49.410;11.030;2023-07-08T14:23:58;2.05;;;1.73;;
68225;SDS011;55045;49.410;11.030;2023-07-08T14:27:04;2.05;;;1.45;;
68225;SDS011;55045;49.410;11.030;2023-07-08T14:30:12;3.20;;;2.08;;
68225;SDS011;55045;49.410;11.030;2023-07-08T14:33:18;3.13;;;2.00;;
68225;SDS011;55045;49.410;11.030;2023-07-08T14:36:21;4.53;;;2.20;;
68225;SDS011;55045;49.410;11.030;2023-07-08T14:39:24;2.13;;;1.27;;
68225;SDS011;55045;49.410;11.030;2023-07-08T14:42:28;2.05;;;1.63;;
68225;SDS011;55045;49.410;11.030;2023-07-08T14:45:33;3.55;;;2.53;;
68225;SDS011;55045;49.410;11.030;2023-07-08T14:48:43;3.22;;;2.17;;
68225;SDS011;55045;49.410;11.030;2023-07-08T14:51:46;8.60;;;1.98;;
68225;SDS011;55045;49.410;11.030;2023-07-08T14:54:50;3.92;;;2.20;;
68225;SDS011;55045;49.410;11.030;2023-07-08T14:57:54;2.92;;;1.85;;
68225;SDS011;55045;49.410;11.030;2023-07-08T15:00:58;4.28;;;2.05;;
68225;SDS011;55045;49.410;11.030;2023-07-08T15:04:09;2.60;;;1.85;;
68225;SDS011;55045;49.410;11.030;2023-07-08T15:07:14;2.15;;;1.67;;
68225;SDS011;55045;49.410;11.030;2023-07-08T15:10:17;5.18;;;1.92;;
68225;SDS011;55045;49.410;11.030;2023-07-08T15:13:22;1.35;;;1.25;;
68225;SDS011;55045;49.410;11.030;2023-07-08T15:16:31;2.33;;;1.70;;
68225;SDS011;55045;49.410;11.030;2023-07-08T15:19:36;2.50;;;1.77;;
68225;SDS011;55045;49.410;11.030;2023-07-08T15:22:41;3.75;;;2.25;;
68225;SDS011;55045;49.410;11.030;2023-07-08T15:25:45;2.45;;;2.00;;
68225;SDS011;55045;49.410;11.030;2023-07-08T15:28:50;2.20;;;1.67;;
68225;SDS011;55045;49.410;11.030;2023-07-08T15:35:03;1.95;;;1.73;;
68225;SDS011;55045;49.410;11.030;2023-07-08T15:38:11;1.63;;;1.52;;
68225;SDS011;55045;49.410;11.030;2023-07-08T15:41:17;6.05;;;1.80;;
68225;SDS011;55045;49.410;11.030;2023-07-08T15:44:23;3.17;;;2.88;;
68225;SDS011;55045;49.410;11.030;2023-07-08T15:47:26;3.80;;;2.28;;
68225;SDS011;55045;49.410;11.030;2023-07-08T15:50:31;2.38;;;1.83;;
68225;SDS011;55045;49.410;11.030;2023-07-08T15:53:34;1.50;;;1.40;;
68225;SDS011;55045;49.410;11.030;2023-07-08T15:56:37;5.13;;;2.53;;
68225;SDS011;55045;49.410;11.030;2023-07-08T15:59:41;2.45;;;2.00;;
68225;SDS011;55045;49.410;11.030;2023-07-08T16:02:45;4.00;;;2.40;;
68225;SDS011;55045;49.410;11.030;2023-07-08T16:05:49;3.03;;;2.05;;
68225;SDS011;55045;49.410;11.030;2023-07-08T16:08:53;7.05;;;2.40;;
68225;SDS011;55045;49.410;11.030;2023-07-08T16:11:56;6.38;;;2.35;;
68225;SDS011;55045;49.410;11.030;2023-07-08T16:14:59;4.20;;;1.70;;
68225;SDS011;55045;49.410;11.030;2023-07-08T16:18:02;3.25;;;2.00;;
68225;SDS011;55045;49.410;11.030;2023-07-08T16:21:07;5.63;;;2.45;;
68225;SDS011;55045;49.410;11.030;2023-07-08T16:24:13;4.57;;;2.10;;
68225;SDS011;55045;49.410;11.030;2023-07-08T16:27:17;6.47;;;2.03;;
68225;SDS011;55045;49.410;11.030;2023-07-08T16:30:20;2.72;;;1.58;;
68225;SDS011;55045;49.410;11.030;2023-07-08T16:33:24;1.90;;;1.77;;
68225;SDS011;55045;49.410;11.030;2023-07-08T16:36:29;2.63;;;1.65;;
68225;SDS011;55045;49.410;11.030;2023-07-08T16:39:32;1.65;;;1.42;;
68225;SDS011;55045;49.410;11.030;2023-07-08T16:42:35;5.68;;;2.50;;
68225;SDS011;55045;49.410;11.030;2023-07-08T16:45:38;5.07;;;2.47;;
68225;SDS011;55045;49.410;11.030;2023-07-08T16:48:42;3.10;;;1.75;;
68225;SDS011;55045;49.410;11.030;2023-07-08T16:51:48;1.52;;;1.27;;
68225;SDS011;55045;49.410;11.030;2023-07-08T16:54:51;1.88;;;1.73;;
68225;SDS011;55045;49.410;11.030;2023-07-08T16:57:55;2.05;;;1.95;;
68225;SDS011;55045;49.410;11.030;2023-07-08T17:00:58;4.03;;;2.30;;
68225;SDS011;55045;49.410;11.030;2023-07-08T17:04:02;3.28;;;2.03;;
68225;SDS011;55045;49.410;11.030;2023-07-08T17:07:09;3.80;;;2.30;;
68225;SDS011;55045;49.410;11.030;2023-07-08T17:10:13;3.42;;;2.58;;
68225;SDS011;55045;49.410;11.030;2023-07-08T17:13:16;2.00;;;1.63;;
68225;SDS011;55045;49.410;11.030;2023-07-08T17:16:22;1.30;;;1.20;;
68225;SDS011;55045;49.410;11.030;2023-07-08T17:19:30;6.00;;;2.20;;
68225;SDS011;55045;49.410;11.030;2023-07-08T17:22:35;1.88;;;1.45;;
68225;SDS011;55045;49.410;11.030;2023-07-08T17:25:40;2.28;;;2.08;;
68225;SDS011;55045;49.410;11.030;2023-07-08T17:28:43;2.42;;;2.20;;
68225;SDS011;55045;49.410;11.030;2023-07-08T17:31:48;9.02;;;3.17;;
68225;SDS011;55045;49.410;11.030;2023-07-08T17:37:59;1.73;;;1.63;;
68225;SDS011;55045;49.410;11.030;2023-07-08T17:41:03;3.88;;;2.38;;
68225;SDS011;55045;49.410;11.030;2023-07-08T17:44:06;2.03;;;1.55;;
68225;SDS011;55045;49.410;11.030;2023-07-08T17:47:10;5.63;;;2.05;;
68225;SDS011;55045;49.410;11.030;2023-07-08T17:50:15;2.13;;;1.65;;
68225;SDS011;55045;49.410;11.030;2023-07-08T17:53:21;2.33;;;1.88;;
68225;SDS011;55045;49.410;11.030;2023-07-08T17:56:25;1.33;;;1.00;;
68225;SDS011;55045;49.410;11.030;2023-07-08T17:59:33;2.25;;;1.60;;
68225;SDS011;55045;49.410;11.030;2023-07-08T18:02:36;4.93;;;3.15;;
68225;SDS011;55045;49.410;11.030;2023-07-08T18:05:39;6.95;;;3.95;;
68225;SDS011;55045;49.410;11.030;2023-07-08T18:08:44;3.75;;;2.63;;
68225;SDS011;55045;49.410;11.030;2023-07-08T18:11:47;3.72;;;2.75;;
68225;SDS011;55045;49.410;11.030;2023-07-08T18:14:51;4.05;;;2.65;;
68225;SDS011;55045;49.410;11.030;2023-07-08T18:17:55;3.88;;;1.95;;
68225;SDS011;55045;49.410;11.030;2023-07-08T18:20:59;2.35;;;1.67;;
68225;SDS011;55045;49.410;11.030;2023-07-08T18:24:07;2.15;;;1.58;;
68225;SDS011;55045;49.410;11.030;2023-07-08T18:27:12;4.35;;;1.90;;
68225;SDS011;55045;49.410;11.030;2023-07-08T18:30:17;3.67;;;1.98;;
68225;SDS011;55045;49.410;11.030;2023-07-08T18:33:21;2.88;;;2.55;;
68225;SDS011;55045;49.410;11.030;2023-07-08T18:36:26;4.53;;;2.42;;